메인 페이지
METAR-TAF:

METAR-TAF

공항 :

시노프, 터키

위도: 42-00-57N, 경도: 035-03-59E, 고도: 7m

현재 날씨관측

예보는 1 시간 40분 전, 17:50시(UTC)에 발표되었습니다.
여러 방향의 바람 1kt
온도 16°C
습도 100%
기압 1015 hPa
시정: 6000m
고도 900ft 상공 구름 보통

METAR: LTCM 251750Z VRB01KT 6000 SCT009 16/16 Q1015

시각: 22:30 (19:30 UTC)

예보

예보는 5 시간 50분 전, 13:40시(UTC)에 발표되었습니다.
예보 대상 시간: 25일 15시부터 25일 24시까지 (UTC)
여러 방향의 바람 2kt
시정 10km 이상
1500m 미만 상공 구름 및 적란운 없음
전환 중
25일 16시부터 25일 18시까지 (UTC)
고도 1500ft 상공 구름 보통

TAF: LTCM 251340Z 2515/2524 VRB02KT CAVOK BECMG 2516/2518 SCT015

4,000개 이상의 공항 관측 자료 및 예보 (METAR 및 TAF 보고).

지도상에서 검색 가능한 기상관측소가 노란 점과 빨간 점으로 표시되어 있습니다.

기상관측소 명을 보려면 표시 위로 마우스를 이동하세요.

날씨 관측과 예보를 보려면 클릭하세요.

지도 변경 : 확대하려면 엑스 표시가 있는 녹색 버튼, 축소하려면 빼기 표시가 있는 녹색 버튼, 다음 페이지의 지도를 보려면 녹색 화살표를 클릭하세요.


METAR-TAF: